Elks Point, Nevada
Current Conditions -  °F | °C
As of 8:53 PM on Wednesday 22 Oct 2014 (Local Time) from KTVL Reporting Station
Clear Clear  
Wind Chill: 53°   Ceiling: Unl
Heat Index: 53°   Visibility: 10mi
Dew Point: 28°   Wind: 7mph
Humidity: 38%   Direction: 200°SSW
Pressure: 30.19"   Gusts: NA
Location:  39.0164°N, 119.925°W
Report Text: KTVL 230353Z AUTO 20006KT 10SM CLR 12/M02 A3019 RMK AO2 SLP198 T01171022
Loading
Personal Weather Stations






























Interactive Weather Map
Tropical Storm Tracking
New forecast layout! Learn more

10-Day Weather Forecast

Advertisements
Track Severe Weather on mobile